Hlavní strana
METAR-TAF:

METAR-TAF

Letiště :

Ronneby, Švédsko

zeměpisná šířka: 56-16N, zeměpisná délka: 015-17E, výška: 58 m

Aktuální stav počasí

Zpráva byla vytvořena před 11 minutami, v 03:50 UTC
Bezvětří
Teplota 11°C
Vlhkost vzduchu 100%
Tlak 1011 hPa
Viditelnost: 0050 m
mlha

METAR: ESDF 180350Z AUTO 00000KT 0050 R01/0275N R19/0325N FG VV001 11/11 Q1011

Čas: 06:01 (04:01 UTC)

Předpověď počasí

Zpráva byla vytvořena před 10 hodinami a 31 minutami, v 17:30 UTC
Předpověď platná od 17 v 18 UTC do 17 v 22 UTC
Jihozápadní vítr 5 kt
Viditelnost: 6000 m
Oblačno až skoro zataženo ve výšce 400 ft
Pravděpodobnost 40%
od 17 v 18 UTC do 17 v 22 UTC
Viditelnost: 0500 m
ve výšce 100 ft
mlha

TAF: ESDF 171730Z 1718/1722 22005KT 6000 BKN004 PROB40 1718/1722 0500 FG VV001 RMK MIL

Stav a předpovědi počasí z více než 4 000 letišť (zprávy METAR a TAF).

Červené a žluté tečky na mapě představují dostupné meteorologické stanice.

Když kurzor umístíte na tečku, zobrazí se název stanice.

Pak kliknutím zobrazíte stav a předpověď počasí.

Chcete-li změnit mapu, kliknutím na zelené tlačítko se znaménkem +mapu přiblížíte, kliknutím na zelené tlačítko se znaménkem – mapu oddálíte a kliknutím na zelené šipky přejdete na sousední mapy.


METAR-TAF: